sensor_id;sensor_type;location;lat;lon;timestamp;P1;durP1;ratioP1;P2;durP2;ratioP2
37971;SDS011;23794;48.234;8.344;2023-07-20T00:02:26;6.30;;;2.63;;
37971;SDS011;23794;48.234;8.344;2023-07-20T00:04:52;4.10;;;2.78;;
37971;SDS011;23794;48.234;8.344;2023-07-20T00:07:19;6.72;;;2.95;;
37971;SDS011;23794;48.234;8.344;2023-07-20T00:09:46;4.97;;;2.42;;
37971;SDS011;23794;48.234;8.344;2023-07-20T00:12:12;3.45;;;2.53;;
37971;SDS011;23794;48.234;8.344;2023-07-20T00:14:39;4.60;;;2.55;;
37971;SDS011;23794;48.234;8.344;2023-07-20T00:17:06;3.05;;;2.40;;
37971;SDS011;23794;48.234;8.344;2023-07-20T00:19:33;3.75;;;2.53;;
37971;SDS011;23794;48.234;8.344;2023-07-20T00:22:01;4.70;;;2.40;;
37971;SDS011;23794;48.234;8.344;2023-07-20T00:24:28;3.53;;;2.70;;
37971;SDS011;23794;48.234;8.344;2023-07-20T00:26:54;5.93;;;2.80;;
37971;SDS011;23794;48.234;8.344;2023-07-20T00:29:21;5.25;;;2.75;;
37971;SDS011;23794;48.234;8.344;2023-07-20T00:31:48;4.32;;;2.47;;
37971;SDS011;23794;48.234;8.344;2023-07-20T00:34:17;7.25;;;2.75;;
37971;SDS011;23794;48.234;8.344;2023-07-20T00:36:44;6.65;;;2.60;;
37971;SDS011;23794;48.234;8.344;2023-07-20T00:39:10;4.88;;;2.30;;
37971;SDS011;23794;48.234;8.344;2023-07-20T00:41:37;4.53;;;2.60;;
37971;SDS011;23794;48.234;8.344;2023-07-20T00:44:04;4.50;;;2.45;;
37971;SDS011;23794;48.234;8.344;2023-07-20T00:46:31;5.68;;;2.38;;
37971;SDS011;23794;48.234;8.344;2023-07-20T00:48:59;5.90;;;2.60;;
37971;SDS011;23794;48.234;8.344;2023-07-20T00:51:27;3.50;;;2.50;;
37971;SDS011;23794;48.234;8.344;2023-07-20T00:53:54;4.75;;;2.38;;
37971;SDS011;23794;48.234;8.344;2023-07-20T00:56:21;5.47;;;2.40;;
37971;SDS011;23794;48.234;8.344;2023-07-20T00:58:48;5.78;;;2.28;;
37971;SDS011;23794;48.234;8.344;2023-07-20T01:01:15;4.93;;;2.33;;
37971;SDS011;23794;48.234;8.344;2023-07-20T01:03:42;4.70;;;2.65;;
37971;SDS011;23794;48.234;8.344;2023-07-20T01:06:10;5.18;;;2.60;;
37971;SDS011;23794;48.234;8.344;2023-07-20T01:09:00;5.55;;;2.50;;
37971;SDS011;23794;48.234;8.344;2023-07-20T01:14:31;4.78;;;2.40;;
37971;SDS011;23794;48.234;8.344;2023-07-20T01:16:58;4.93;;;2.47;;
37971;SDS011;23794;48.234;8.344;2023-07-20T01:19:26;3.70;;;2.05;;
37971;SDS011;23794;48.234;8.344;2023-07-20T01:22:03;4.03;;;2.40;;
37971;SDS011;23794;48.234;8.344;2023-07-20T01:30:44;5.38;;;2.05;;
37971;SDS011;23794;48.234;8.344;2023-07-20T01:33:17;5.15;;;2.75;;
37971;SDS011;23794;48.234;8.344;2023-07-20T01:35:46;4.60;;;2.38;;
37971;SDS011;23794;48.234;8.344;2023-07-20T01:38:18;3.75;;;2.40;;
37971;SDS011;23794;48.234;8.344;2023-07-20T01:40:48;3.40;;;2.08;;
37971;SDS011;23794;48.234;8.344;2023-07-20T01:43:15;4.38;;;1.90;;
37971;SDS011;23794;48.234;8.344;2023-07-20T01:45:42;4.22;;;2.30;;
37971;SDS011;23794;48.234;8.344;2023-07-20T01:48:09;5.22;;;2.53;;
37971;SDS011;23794;48.234;8.344;2023-07-20T01:50:36;4.07;;;2.00;;
37971;SDS011;23794;48.234;8.344;2023-07-20T01:53:03;3.40;;;2.25;;
37971;SDS011;23794;48.234;8.344;2023-07-20T01:55:30;3.80;;;2.05;;
37971;SDS011;23794;48.234;8.344;2023-07-20T01:57:56;4.68;;;2.22;;
37971;SDS011;23794;48.234;8.344;2023-07-20T02:00:24;3.45;;;2.10;;
37971;SDS011;23794;48.234;8.344;2023-07-20T02:02:51;3.83;;;2.38;;
37971;SDS011;23794;48.234;8.344;2023-07-20T02:05:19;5.28;;;2.25;;
37971;SDS011;23794;48.234;8.344;2023-07-20T02:07:47;7.50;;;2.50;;
37971;SDS011;23794;48.234;8.344;2023-07-20T02:10:18;3.38;;;2.15;;
37971;SDS011;23794;48.234;8.344;2023-07-20T02:12:44;5.60;;;2.17;;
37971;SDS011;23794;48.234;8.344;2023-07-20T02:15:11;4.88;;;3.08;;
37971;SDS011;23794;48.234;8.344;2023-07-20T02:17:39;3.13;;;1.90;;
37971;SDS011;23794;48.234;8.344;2023-07-20T02:20:08;3.35;;;2.20;;
37971;SDS011;23794;48.234;8.344;2023-07-20T02:22:36;4.53;;;2.28;;
37971;SDS011;23794;48.234;8.344;2023-07-20T02:25:04;3.17;;;1.75;;
37971;SDS011;23794;48.234;8.344;2023-07-20T02:27:31;4.93;;;1.83;;
37971;SDS011;23794;48.234;8.344;2023-07-20T02:29:58;4.07;;;2.22;;
37971;SDS011;23794;48.234;8.344;2023-07-20T02:32:25;3.53;;;2.03;;
37971;SDS011;23794;48.234;8.344;2023-07-20T02:34:51;4.25;;;1.70;;
37971;SDS011;23794;48.234;8.344;2023-07-20T02:37:18;4.80;;;1.92;;
37971;SDS011;23794;48.234;8.344;2023-07-20T02:39:45;2.97;;;2.08;;
37971;SDS011;23794;48.234;8.344;2023-07-20T02:42:12;3.60;;;2.10;;
37971;SDS011;23794;48.234;8.344;2023-07-20T02:44:40;3.97;;;1.92;;
37971;SDS011;23794;48.234;8.344;2023-07-20T02:47:07;4.15;;;2.25;;
37971;SDS011;23794;48.234;8.344;2023-07-20T02:49:34;3.67;;;1.90;;
37971;SDS011;23794;48.234;8.344;2023-07-20T02:52:00;4.40;;;2.30;;
37971;SDS011;23794;48.234;8.344;2023-07-20T02:54:28;6.85;;;2.25;;
37971;SDS011;23794;48.234;8.344;2023-07-20T02:56:56;7.13;;;3.00;;
37971;SDS011;23794;48.234;8.344;2023-07-20T02:59:23;3.47;;;2.10;;
37971;SDS011;23794;48.234;8.344;2023-07-20T03:01:50;3.15;;;2.10;;
37971;SDS011;23794;48.234;8.344;2023-07-20T03:04:17;3.75;;;2.00;;
37971;SDS011;23794;48.234;8.344;2023-07-20T03:06:43;5.30;;;2.35;;
37971;SDS011;23794;48.234;8.344;2023-07-20T03:09:10;9.77;;;2.30;;
37971;SDS011;23794;48.234;8.344;2023-07-20T03:11:39;6.07;;;2.17;;
37971;SDS011;23794;48.234;8.344;2023-07-20T03:14:05;4.93;;;2.22;;
37971;SDS011;23794;48.234;8.344;2023-07-20T03:16:32;2.38;;;1.90;;
37971;SDS011;23794;48.234;8.344;2023-07-20T03:19:00;4.10;;;2.35;;
37971;SDS011;23794;48.234;8.344;2023-07-20T03:21:28;4.45;;;2.38;;
37971;SDS011;23794;48.234;8.344;2023-07-20T03:23:55;6.80;;;2.30;;
37971;SDS011;23794;48.234;8.344;2023-07-20T03:26:22;4.00;;;2.00;;
37971;SDS011;23794;48.234;8.344;2023-07-20T03:28:49;3.35;;;2.22;;
37971;SDS011;23794;48.234;8.344;2023-07-20T03:31:16;6.35;;;2.58;;
37971;SDS011;23794;48.234;8.344;2023-07-20T03:33:43;4.18;;;2.40;;
37971;SDS011;23794;48.234;8.344;2023-07-20T03:36:09;3.83;;;2.20;;
37971;SDS011;23794;48.234;8.344;2023-07-20T03:38:36;4.00;;;2.20;;
37971;SDS011;23794;48.234;8.344;2023-07-20T03:41:03;2.92;;;2.03;;
37971;SDS011;23794;48.234;8.344;2023-07-20T03:43:30;3.72;;;2.35;;
37971;SDS011;23794;48.234;8.344;2023-07-20T03:45:56;3.83;;;2.30;;
37971;SDS011;23794;48.234;8.344;2023-07-20T03:48:24;3.17;;;2.13;;
37971;SDS011;23794;48.234;8.344;2023-07-20T03:50:52;4.70;;;2.42;;
37971;SDS011;23794;48.234;8.344;2023-07-20T03:53:19;4.13;;;2.65;;
37971;SDS011;23794;48.234;8.344;2023-07-20T03:55:47;4.22;;;2.15;;
37971;SDS011;23794;48.234;8.344;2023-07-20T03:58:14;5.15;;;2.72;;
37971;SDS011;23794;48.234;8.344;2023-07-20T04:00:45;5.40;;;1.90;;
37971;SDS011;23794;48.234;8.344;2023-07-20T04:03:13;4.72;;;2.20;;
37971;SDS011;23794;48.234;8.344;2023-07-20T04:05:40;4.32;;;2.22;;
37971;SDS011;23794;48.234;8.344;2023-07-20T04:08:07;3.95;;;2.40;;
37971;SDS011;23794;48.234;8.344;2023-07-20T04:10:34;3.55;;;2.58;;
37971;SDS011;23794;48.234;8.344;2023-07-20T04:13:01;3.67;;;2.08;;
37971;SDS011;23794;48.234;8.344;2023-07-20T04:15:28;4.85;;;2.30;;
37971;SDS011;23794;48.234;8.344;2023-07-20T04:17:55;4.97;;;2.97;;
37971;SDS011;23794;48.234;8.344;2023-07-20T04:20:23;4.55;;;2.65;;
37971;SDS011;23794;48.234;8.344;2023-07-20T04:22:50;3.15;;;1.85;;
37971;SDS011;23794;48.234;8.344;2023-07-20T04:25:17;3.72;;;2.25;;
37971;SDS011;23794;48.234;8.344;2023-07-20T04:27:44;5.30;;;2.60;;
37971;SDS011;23794;48.234;8.344;2023-07-20T04:30:11;5.40;;;2.65;;
37971;SDS011;23794;48.234;8.344;2023-07-20T04:32:39;4.88;;;2.40;;
37971;SDS011;23794;48.234;8.344;2023-07-20T04:35:11;3.00;;;2.22;;
37971;SDS011;23794;48.234;8.344;2023-07-20T04:37:40;3.42;;;2.08;;
37971;SDS011;23794;48.234;8.344;2023-07-20T04:40:15;3.13;;;2.20;;
37971;SDS011;23794;48.234;8.344;2023-07-20T04:42:42;4.85;;;2.50;;
37971;SDS011;23794;48.234;8.344;2023-07-20T04:45:10;3.78;;;2.30;;
37971;SDS011;23794;48.234;8.344;2023-07-20T04:47:37;5.32;;;2.30;;
37971;SDS011;23794;48.234;8.344;2023-07-20T04:50:04;4.35;;;2.38;;
37971;SDS011;23794;48.234;8.344;2023-07-20T04:52:31;4.07;;;2.15;;
37971;SDS011;23794;48.234;8.344;2023-07-20T04:55:11;4.22;;;2.38;;
37971;SDS011;23794;48.234;8.344;2023-07-20T04:57:37;4.28;;;2.50;;
37971;SDS011;23794;48.234;8.344;2023-07-20T05:00:04;3.92;;;2.30;;
37971;SDS011;23794;48.234;8.344;2023-07-20T05:02:33;6.00;;;2.65;;
37971;SDS011;23794;48.234;8.344;2023-07-20T05:05:00;3.45;;;2.28;;
37971;SDS011;23794;48.234;8.344;2023-07-20T05:07:27;4.40;;;2.55;;
37971;SDS011;23794;48.234;8.344;2023-07-20T05:09:54;4.10;;;2.25;;
37971;SDS011;23794;48.234;8.344;2023-07-20T05:12:21;4.60;;;2.20;;
37971;SDS011;23794;48.234;8.344;2023-07-20T05:14:48;5.57;;;2.40;;
37971;SDS011;23794;48.234;8.344;2023-07-20T05:17:15;5.88;;;2.63;;
37971;SDS011;23794;48.234;8.344;2023-07-20T05:19:41;3.42;;;2.60;;
37971;SDS011;23794;48.234;8.344;2023-07-20T05:22:10;5.50;;;2.53;;
37971;SDS011;23794;48.234;8.344;2023-07-20T05:24:40;3.35;;;2.13;;
37971;SDS011;23794;48.234;8.344;2023-07-20T05:27:06;5.53;;;2.92;;
37971;SDS011;23794;48.234;8.344;2023-07-20T05:29:33;5.10;;;2.65;;
37971;SDS011;23794;48.234;8.344;2023-07-20T05:32:00;4.43;;;2.67;;
37971;SDS011;23794;48.234;8.344;2023-07-20T05:34:26;3.13;;;2.42;;
37971;SDS011;23794;48.234;8.344;2023-07-20T05:36:53;4.30;;;2.78;;
37971;SDS011;23794;48.234;8.344;2023-07-20T05:39:20;6.32;;;2.88;;
37971;SDS011;23794;48.234;8.344;2023-07-20T05:41:46;4.78;;;2.50;;
37971;SDS011;23794;48.234;8.344;2023-07-20T05:44:13;5.60;;;3.22;;
37971;SDS011;23794;48.234;8.344;2023-07-20T05:46:40;6.93;;;3.25;;
37971;SDS011;23794;48.234;8.344;2023-07-20T05:49:20;6.55;;;4.82;;
37971;SDS011;23794;48.234;8.344;2023-07-20T05:51:47;10.38;;;6.97;;
37971;SDS011;23794;48.234;8.344;2023-07-20T05:54:14;9.43;;;6.03;;
37971;SDS011;23794;48.234;8.344;2023-07-20T05:56:41;7.75;;;4.95;;
37971;SDS011;23794;48.234;8.344;2023-07-20T05:59:07;5.20;;;3.25;;
37971;SDS011;23794;48.234;8.344;2023-07-20T06:01:34;5.03;;;2.80;;
37971;SDS011;23794;48.234;8.344;2023-07-20T06:04:01;5.07;;;2.85;;
37971;SDS011;23794;48.234;8.344;2023-07-20T06:06:27;4.65;;;2.55;;
37971;SDS011;23794;48.234;8.344;2023-07-20T06:08:54;5.32;;;2.60;;
37971;SDS011;23794;48.234;8.344;2023-07-20T06:11:21;3.70;;;2.55;;
37971;SDS011;23794;48.234;8.344;2023-07-20T06:13:48;4.43;;;2.20;;
37971;SDS011;23794;48.234;8.344;2023-07-20T06:16:14;3.05;;;2.00;;
37971;SDS011;23794;48.234;8.344;2023-07-20T06:18:41;5.05;;;2.25;;
37971;SDS011;23794;48.234;8.344;2023-07-20T06:21:08;4.45;;;2.20;;
37971;SDS011;23794;48.234;8.344;2023-07-20T06:23:34;9.27;;;2.60;;
37971;SDS011;23794;48.234;8.344;2023-07-20T06:26:01;5.00;;;2.20;;
37971;SDS011;23794;48.234;8.344;2023-07-20T06:28:27;4.28;;;2.10;;
37971;SDS011;23794;48.234;8.344;2023-07-20T06:30:59;3.95;;;1.95;;
37971;SDS011;23794;48.234;8.344;2023-07-20T06:33:29;8.13;;;2.35;;
37971;SDS011;23794;48.234;8.344;2023-07-20T06:35:56;4.45;;;1.98;;
37971;SDS011;23794;48.234;8.344;2023-07-20T06:38:23;4.05;;;1.90;;
37971;SDS011;23794;48.234;8.344;2023-07-20T06:40:52;5.07;;;2.25;;
37971;SDS011;23794;48.234;8.344;2023-07-20T06:43:19;4.32;;;1.88;;
37971;SDS011;23794;48.234;8.344;2023-07-20T06:45:52;2.83;;;2.20;;
37971;SDS011;23794;48.234;8.344;2023-07-20T06:48:21;3.40;;;1.95;;
37971;SDS011;23794;48.234;8.344;2023-07-20T06:50:48;4.15;;;2.20;;
37971;SDS011;23794;48.234;8.344;2023-07-20T06:53:15;4.10;;;2.03;;
37971;SDS011;23794;48.234;8.344;2023-07-20T06:55:42;4.32;;;1.88;;
37971;SDS011;23794;48.234;8.344;2023-07-20T06:58:09;4.07;;;1.92;;
37971;SDS011;23794;48.234;8.344;2023-07-20T07:00:37;3.92;;;2.20;;
37971;SDS011;23794;48.234;8.344;2023-07-20T07:03:04;5.18;;;2.83;;
37971;SDS011;23794;48.234;8.344;2023-07-20T07:05:31;6.03;;;2.40;;
37971;SDS011;23794;48.234;8.344;2023-07-20T07:08:03;9.20;;;2.22;;
37971;SDS011;23794;48.234;8.344;2023-07-20T07:10:32;5.60;;;2.42;;
37971;SDS011;23794;48.234;8.344;2023-07-20T07:13:01;4.35;;;1.90;;
37971;SDS011;23794;48.234;8.344;2023-07-20T07:15:28;3.65;;;2.05;;
37971;SDS011;23794;48.234;8.344;2023-07-20T07:17:55;3.95;;;1.90;;
37971;SDS011;23794;48.234;8.344;2023-07-20T07:20:22;5.38;;;2.20;;
37971;SDS011;23794;48.234;8.344;2023-07-20T07:22:50;4.00;;;2.33;;
37971;SDS011;23794;48.234;8.344;2023-07-20T07:25:17;6.63;;;2.35;;
37971;SDS011;23794;48.234;8.344;2023-07-20T07:27:48;4.85;;;2.17;;
37971;SDS011;23794;48.234;8.344;2023-07-20T07:30:15;3.85;;;2.35;;
37971;SDS011;23794;48.234;8.344;2023-07-20T07:32:42;3.70;;;2.03;;
37971;SDS011;23794;48.234;8.344;2023-07-20T07:35:09;2.92;;;2.00;;
37971;SDS011;23794;48.234;8.344;2023-07-20T07:37:36;4.65;;;2.10;;
37971;SDS011;23794;48.234;8.344;2023-07-20T07:40:23;2.90;;;2.30;;
37971;SDS011;23794;48.234;8.344;2023-07-20T07:42:49;6.22;;;2.53;;
37971;SDS011;23794;48.234;8.344;2023-07-20T07:45:16;4.28;;;2.10;;
37971;SDS011;23794;48.234;8.344;2023-07-20T07:47:43;4.18;;;2.40;;
37971;SDS011;23794;48.234;8.344;2023-07-20T07:50:10;3.90;;;2.10;;
37971;SDS011;23794;48.234;8.344;2023-07-20T07:52:36;8.30;;;2.75;;
37971;SDS011;23794;48.234;8.344;2023-07-20T07:55:03;3.28;;;1.50;;
37971;SDS011;23794;48.234;8.344;2023-07-20T07:57:31;4.60;;;2.17;;
37971;SDS011;23794;48.234;8.344;2023-07-20T07:59:57;4.63;;;1.75;;
37971;SDS011;23794;48.234;8.344;2023-07-20T08:02:30;4.20;;;1.70;;
37971;SDS011;23794;48.234;8.344;2023-07-20T08:04:56;6.55;;;2.28;;
37971;SDS011;23794;48.234;8.344;2023-07-20T08:07:23;4.70;;;2.08;;
37971;SDS011;23794;48.234;8.344;2023-07-20T08:09:49;3.83;;;1.88;;
37971;SDS011;23794;48.234;8.344;2023-07-20T08:12:16;4.85;;;1.83;;
37971;SDS011;23794;48.234;8.344;2023-07-20T08:14:44;3.88;;;1.60;;
37971;SDS011;23794;48.234;8.344;2023-07-20T08:17:11;2.90;;;1.63;;
37971;SDS011;23794;48.234;8.344;2023-07-20T08:19:38;3.70;;;1.65;;
37971;SDS011;23794;48.234;8.344;2023-07-20T08:22:07;2.63;;;1.67;;
37971;SDS011;23794;48.234;8.344;2023-07-20T08:24:35;5.03;;;1.70;;
37971;SDS011;23794;48.234;8.344;2023-07-20T08:27:05;3.30;;;1.30;;
37971;SDS011;23794;48.234;8.344;2023-07-20T08:29:32;2.67;;;1.55;;
37971;SDS011;23794;48.234;8.344;2023-07-20T08:31:58;2.75;;;1.70;;
37971;SDS011;23794;48.234;8.344;2023-07-20T08:34:25;2.40;;;1.40;;
37971;SDS011;23794;48.234;8.344;2023-07-20T08:36:57;3.15;;;1.83;;
37971;SDS011;23794;48.234;8.344;2023-07-20T08:39:24;3.65;;;1.83;;
37971;SDS011;23794;48.234;8.344;2023-07-20T08:41:51;2.22;;;1.40;;
37971;SDS011;23794;48.234;8.344;2023-07-20T08:44:18;2.42;;;1.30;;
37971;SDS011;23794;48.234;8.344;2023-07-20T08:46:45;3.88;;;1.70;;
37971;SDS011;23794;48.234;8.344;2023-07-20T08:49:14;2.83;;;1.50;;
37971;SDS011;23794;48.234;8.344;2023-07-20T08:51:44;2.90;;;2.13;;
37971;SDS011;23794;48.234;8.344;2023-07-20T08:54:12;4.28;;;2.08;;
37971;SDS011;23794;48.234;8.344;2023-07-20T08:56:40;3.40;;;2.05;;
37971;SDS011;23794;48.234;8.344;2023-07-20T08:59:10;6.13;;;1.90;;
37971;SDS011;23794;48.234;8.344;2023-07-20T09:01:42;3.65;;;2.22;;
37971;SDS011;23794;48.234;8.344;2023-07-20T09:04:13;2.40;;;1.88;;
37971;SDS011;23794;48.234;8.344;2023-07-20T09:06:39;4.50;;;1.77;;
37971;SDS011;23794;48.234;8.344;2023-07-20T09:09:11;4.07;;;2.10;;
37971;SDS011;23794;48.234;8.344;2023-07-20T09:11:40;2.95;;;1.70;;
37971;SDS011;23794;48.234;8.344;2023-07-20T09:14:07;3.65;;;1.63;;
37971;SDS011;23794;48.234;8.344;2023-07-20T09:16:47;2.30;;;1.88;;
37971;SDS011;23794;48.234;8.344;2023-07-20T09:19:19;2.58;;;2.00;;
37971;SDS011;23794;48.234;8.344;2023-07-20T09:21:48;2.33;;;1.70;;
37971;SDS011;23794;48.234;8.344;2023-07-20T09:24:17;5.70;;;2.13;;
37971;SDS011;23794;48.234;8.344;2023-07-20T09:26:44;3.55;;;1.65;;
37971;SDS011;23794;48.234;8.344;2023-07-20T09:29:14;2.63;;;2.17;;
37971;SDS011;23794;48.234;8.344;2023-07-20T09:31:50;3.13;;;2.00;;
37971;SDS011;23794;48.234;8.344;2023-07-20T09:34:28;3.85;;;2.08;;
37971;SDS011;23794;48.234;8.344;2023-07-20T09:37:00;4.47;;;2.00;;
37971;SDS011;23794;48.234;8.344;2023-07-20T09:39:28;3.13;;;2.10;;
37971;SDS011;23794;48.234;8.344;2023-07-20T09:41:59;3.67;;;2.47;;
37971;SDS011;23794;48.234;8.344;2023-07-20T09:44:36;6.45;;;2.22;;
37971;SDS011;23794;48.234;8.344;2023-07-20T09:47:06;4.63;;;2.00;;
37971;SDS011;23794;48.234;8.344;2023-07-20T09:49:33;4.03;;;1.83;;
37971;SDS011;23794;48.234;8.344;2023-07-20T09:52:08;3.40;;;2.10;;
37971;SDS011;23794;48.234;8.344;2023-07-20T09:54:37;1.90;;;1.67;;
37971;SDS011;23794;48.234;8.344;2023-07-20T09:57:06;3.40;;;2.20;;
37971;SDS011;23794;48.234;8.344;2023-07-20T09:59:35;3.95;;;2.08;;
37971;SDS011;23794;48.234;8.344;2023-07-20T10:02:03;3.95;;;2.25;;
37971;SDS011;23794;48.234;8.344;2023-07-20T10:04:37;2.72;;;1.67;;
37971;SDS011;23794;48.234;8.344;2023-07-20T10:07:05;3.15;;;1.90;;
37971;SDS011;23794;48.234;8.344;2023-07-20T10:09:38;3.05;;;1.70;;
37971;SDS011;23794;48.234;8.344;2023-07-20T10:12:07;4.95;;;2.00;;
37971;SDS011;23794;48.234;8.344;2023-07-20T10:14:44;2.30;;;1.58;;
37971;SDS011;23794;48.234;8.344;2023-07-20T10:17:20;2.63;;;1.70;;
37971;SDS011;23794;48.234;8.344;2023-07-20T10:19:49;7.57;;;2.00;;
37971;SDS011;23794;48.234;8.344;2023-07-20T10:22:27;3.25;;;1.88;;
37971;SDS011;23794;48.234;8.344;2023-07-20T10:25:06;3.10;;;2.10;;
37971;SDS011;23794;48.234;8.344;2023-07-20T10:27:33;2.78;;;1.58;;
37971;SDS011;23794;48.234;8.344;2023-07-20T10:29:59;4.65;;;2.38;;
37971;SDS011;23794;48.234;8.344;2023-07-20T10:32:28;3.13;;;1.60;;
37971;SDS011;23794;48.234;8.344;2023-07-20T10:34:56;2.95;;;1.70;;
37971;SDS011;23794;48.234;8.344;2023-07-20T10:42:58;4.68;;;1.80;;
37971;SDS011;23794;48.234;8.344;2023-07-20T10:45:34;3.27;;;1.80;;
37971;SDS011;23794;48.234;8.344;2023-07-20T10:48:15;2.20;;;1.27;;
37971;SDS011;23794;48.234;8.344;2023-07-20T10:50:46;2.00;;;1.65;;
37971;SDS011;23794;48.234;8.344;2023-07-20T10:53:40;2.67;;;1.35;;
37971;SDS011;23794;48.234;8.344;2023-07-20T10:56:13;6.53;;;2.08;;
37971;SDS011;23794;48.234;8.344;2023-07-20T10:58:41;2.90;;;1.52;;
37971;SDS011;23794;48.234;8.344;2023-07-20T11:01:10;5.00;;;1.65;;
37971;SDS011;23794;48.234;8.344;2023-07-20T11:03:48;2.60;;;1.48;;
37971;SDS011;23794;48.234;8.344;2023-07-20T11:08:55;2.58;;;1.60;;
37971;SDS011;23794;48.234;8.344;2023-07-20T11:11:27;3.63;;;1.30;;
37971;SDS011;23794;48.234;8.344;2023-07-20T11:13:56;2.25;;;1.30;;
37971;SDS011;23794;48.234;8.344;2023-07-20T11:19:03;2.30;;;1.30;;
37971;SDS011;23794;48.234;8.344;2023-07-20T11:21:38;3.60;;;2.17;;
37971;SDS011;23794;48.234;8.344;2023-07-20T11:24:25;1.98;;;1.25;;
37971;SDS011;23794;48.234;8.344;2023-07-20T11:26:52;2.30;;;1.30;;
37971;SDS011;23794;48.234;8.344;2023-07-20T11:29:21;1.70;;;1.40;;
37971;SDS011;23794;48.234;8.344;2023-07-20T11:31:58;2.22;;;1.35;;
37971;SDS011;23794;48.234;8.344;2023-07-20T11:34:27;3.92;;;1.65;;
37971;SDS011;23794;48.234;8.344;2023-07-20T11:36:56;2.88;;;1.50;;
37971;SDS011;23794;48.234;8.344;2023-07-20T11:39:25;2.40;;;1.45;;
37971;SDS011;23794;48.234;8.344;2023-07-20T11:41:53;4.70;;;2.08;;
37971;SDS011;23794;48.234;8.344;2023-07-20T11:44:22;4.93;;;1.60;;
37971;SDS011;23794;48.234;8.344;2023-07-20T11:47:13;2.78;;;1.40;;
37971;SDS011;23794;48.234;8.344;2023-07-20T11:49:43;2.30;;;1.50;;
37971;SDS011;23794;48.234;8.344;2023-07-20T11:52:13;3.92;;;1.73;;
37971;SDS011;23794;48.234;8.344;2023-07-20T11:54:42;6.75;;;1.73;;
37971;SDS011;23794;48.234;8.344;2023-07-20T11:57:17;1.83;;;1.40;;
37971;SDS011;23794;48.234;8.344;2023-07-20T11:59:58;2.97;;;1.90;;
37971;SDS011;23794;48.234;8.344;2023-07-20T12:02:30;2.15;;;1.67;;
37971;SDS011;23794;48.234;8.344;2023-07-20T12:04:57;4.18;;;1.60;;
37971;SDS011;23794;48.234;8.344;2023-07-20T12:07:25;3.30;;;1.58;;
37971;SDS011;23794;48.234;8.344;2023-07-20T12:12:52;3.63;;;1.70;;
37971;SDS011;23794;48.234;8.344;2023-07-20T12:15:21;2.35;;;1.45;;
37971;SDS011;23794;48.234;8.344;2023-07-20T12:17:52;3.78;;;1.75;;
37971;SDS011;23794;48.234;8.344;2023-07-20T12:20:24;4.38;;;1.40;;
37971;SDS011;23794;48.234;8.344;2023-07-20T12:23:05;2.60;;;1.50;;
37971;SDS011;23794;48.234;8.344;2023-07-20T12:25:42;4.00;;;1.80;;
37971;SDS011;23794;48.234;8.344;2023-07-20T12:28:14;2.65;;;1.13;;
37971;SDS011;23794;48.234;8.344;2023-07-20T12:30:42;2.80;;;1.42;;
37971;SDS011;23794;48.234;8.344;2023-07-20T12:33:10;3.55;;;1.40;;
37971;SDS011;23794;48.234;8.344;2023-07-20T12:35:38;3.22;;;1.60;;
37971;SDS011;23794;48.234;8.344;2023-07-20T12:38:05;3.00;;;1.67;;
37971;SDS011;23794;48.234;8.344;2023-07-20T12:40:33;2.55;;;1.70;;
37971;SDS011;23794;48.234;8.344;2023-07-20T12:43:00;2.30;;;1.55;;
37971;SDS011;23794;48.234;8.344;2023-07-20T12:45:27;3.30;;;1.27;;
37971;SDS011;23794;48.234;8.344;2023-07-20T12:47:54;2.28;;;1.60;;
37971;SDS011;23794;48.234;8.344;2023-07-20T12:50:21;2.70;;;1.30;;
37971;SDS011;23794;48.234;8.344;2023-07-20T12:52:48;4.70;;;1.45;;
37971;SDS011;23794;48.234;8.344;2023-07-20T12:55:14;2.67;;;1.55;;
37971;SDS011;23794;48.234;8.344;2023-07-20T12:57:41;2.65;;;1.52;;
37971;SDS011;23794;48.234;8.344;2023-07-20T13:00:09;3.38;;;1.50;;
37971;SDS011;23794;48.234;8.344;2023-07-20T13:02:38;2.30;;;1.40;;
37971;SDS011;23794;48.234;8.344;2023-07-20T13:05:05;2.15;;;1.55;;
37971;SDS011;23794;48.234;8.344;2023-07-20T13:07:32;3.13;;;1.48;;
37971;SDS011;23794;48.234;8.344;2023-07-20T13:10:03;2.60;;;1.70;;
37971;SDS011;23794;48.234;8.344;2023-07-20T13:12:33;3.75;;;1.17;;
37971;SDS011;23794;48.234;8.344;2023-07-20T13:15:03;3.05;;;1.38;;
37971;SDS011;23794;48.234;8.344;2023-07-20T13:17:32;3.45;;;1.85;;
37971;SDS011;23794;48.234;8.344;2023-07-20T13:20:00;3.08;;;1.85;;
37971;SDS011;23794;48.234;8.344;2023-07-20T13:22:27;2.53;;;1.67;;
37971;SDS011;23794;48.234;8.344;2023-07-20T13:24:53;2.33;;;1.30;;
37971;SDS011;23794;48.234;8.344;2023-07-20T13:27:20;11.60;;;2.38;;
37971;SDS011;23794;48.234;8.344;2023-07-20T13:29:47;2.65;;;1.30;;
37971;SDS011;23794;48.234;8.344;2023-07-20T13:32:14;3.58;;;1.30;;
37971;SDS011;23794;48.234;8.344;2023-07-20T13:34:41;2.78;;;1.33;;
37971;SDS011;23794;48.234;8.344;2023-07-20T13:37:08;3.25;;;1.23;;
37971;SDS011;23794;48.234;8.344;2023-07-20T13:39:39;5.40;;;2.33;;
37971;SDS011;23794;48.234;8.344;2023-07-20T13:42:05;2.85;;;1.48;;
37971;SDS011;23794;48.234;8.344;2023-07-20T13:44:33;3.58;;;1.55;;
37971;SDS011;23794;48.234;8.344;2023-07-20T13:47:01;2.55;;;1.35;;
37971;SDS011;23794;48.234;8.344;2023-07-20T13:49:31;4.28;;;1.42;;
37971;SDS011;23794;48.234;8.344;2023-07-20T13:52:02;3.30;;;1.40;;
37971;SDS011;23794;48.234;8.344;2023-07-20T13:54:32;2.17;;;1.55;;
37971;SDS011;23794;48.234;8.344;2023-07-20T13:56:58;4.38;;;1.75;;
37971;SDS011;23794;48.234;8.344;2023-07-20T13:59:25;6.85;;;2.05;;
37971;SDS011;23794;48.234;8.344;2023-07-20T14:01:52;3.00;;;1.40;;
37971;SDS011;23794;48.234;8.344;2023-07-20T14:04:38;4.50;;;1.60;;
37971;SDS011;23794;48.234;8.344;2023-07-20T14:07:06;3.80;;;1.40;;
37971;SDS011;23794;48.234;8.344;2023-07-20T14:09:33;3.35;;;1.30;;
37971;SDS011;23794;48.234;8.344;2023-07-20T14:12:00;4.70;;;1.48;;
37971;SDS011;23794;48.234;8.344;2023-07-20T14:14:30;8.55;;;1.50;;
37971;SDS011;23794;48.234;8.344;2023-07-20T14:16:57;1.75;;;1.52;;
37971;SDS011;23794;48.234;8.344;2023-07-20T14:19:29;2.35;;;1.30;;
37971;SDS011;23794;48.234;8.344;2023-07-20T14:21:55;3.17;;;1.70;;
37971;SDS011;23794;48.234;8.344;2023-07-20T14:24:25;4.82;;;1.90;;
37971;SDS011;23794;48.234;8.344;2023-07-20T14:26:52;4.40;;;1.20;;
37971;SDS011;23794;48.234;8.344;2023-07-20T14:29:20;3.58;;;1.70;;
37971;SDS011;23794;48.234;8.344;2023-07-20T14:31:52;1.98;;;1.45;;
37971;SDS011;23794;48.234;8.344;2023-07-20T14:34:20;7.45;;;2.10;;
37971;SDS011;23794;48.234;8.344;2023-07-20T14:36:47;3.55;;;1.80;;
37971;SDS011;23794;48.234;8.344;2023-07-20T14:39:13;11.98;;;1.92;;
37971;SDS011;23794;48.234;8.344;2023-07-20T14:41:40;3.58;;;1.30;;
37971;SDS011;23794;48.234;8.344;2023-07-20T14:44:07;1.88;;;1.33;;
37971;SDS011;23794;48.234;8.344;2023-07-20T14:46:34;2.80;;;1.77;;
37971;SDS011;23794;48.234;8.344;2023-07-20T14:49:01;4.18;;;1.58;;
37971;SDS011;23794;48.234;8.344;2023-07-20T14:51:29;3.30;;;1.58;;
37971;SDS011;23794;48.234;8.344;2023-07-20T14:54:02;2.45;;;1.48;;
37971;SDS011;23794;48.234;8.344;2023-07-20T14:56:29;3.55;;;1.60;;
37971;SDS011;23794;48.234;8.344;2023-07-20T14:58:55;6.40;;;1.65;;
37971;SDS011;23794;48.234;8.344;2023-07-20T15:01:24;2.15;;;1.30;;
37971;SDS011;23794;48.234;8.344;2023-07-20T15:03:51;4.65;;;1.48;;
37971;SDS011;23794;48.234;8.344;2023-07-20T15:06:22;1.77;;;1.50;;
37971;SDS011;23794;48.234;8.344;2023-07-20T15:08:50;2.20;;;1.65;;
37971;SDS011;23794;48.234;8.344;2023-07-20T15:11:16;2.15;;;1.63;;
37971;SDS011;23794;48.234;8.344;2023-07-20T15:13:43;1.90;;;1.52;;
37971;SDS011;23794;48.234;8.344;2023-07-20T15:16:09;2.03;;;1.45;;
37971;SDS011;23794;48.234;8.344;2023-07-20T15:18:37;3.58;;;1.58;;
37971;SDS011;23794;48.234;8.344;2023-07-20T15:21:13;1.67;;;1.30;;